Terminal Aerodrome Forecast
Issued by NWS

Current Version | Previous Version | Graphics & Text | Print | Product List | Glossary On
Versions: 1 2 3 4 5 6 7 8 9 10 11 12 13 14 15 16 17 18 19
000
FTUS41 KPBZ 151730
TAFMGW
TAF
KMGW 151730Z 1518/1618 30003KT P6SM BKN025
     FM152300 11003KT P6SM SCT025 BKN100
     FM160900 12003KT P6SM VCSH BKN080
     FM161300 12003KT P6SM BKN025
     FM161600 00000KT P6SM VCSH OVC015=

USA.gov is the U.S. government's official web portal to all federal, state and local government web resources and services.